sensor_id;sensor_type;location;lat;lon;timestamp;temperature;humidity
25468;DHT22;13384;24.794;110.498;2022-10-16T00:00:25;21.10;88.50
25468;DHT22;13384;24.794;110.498;2022-10-16T00:03:14;21.10;88.50
25468;DHT22;13384;24.794;110.498;2022-10-16T00:05:45;21.10;88.50
25468;DHT22;13384;24.794;110.498;2022-10-16T00:08:34;21.10;88.50
25468;DHT22;13384;24.794;110.498;2022-10-16T00:11:30;21.10;88.50
25468;DHT22;13384;24.794;110.498;2022-10-16T00:14:06;21.10;88.40
25468;DHT22;13384;24.794;110.498;2022-10-16T00:17:12;21.10;88.30
25468;DHT22;13384;24.794;110.498;2022-10-16T00:20:03;21.20;88.40
25468;DHT22;13384;24.794;110.498;2022-10-16T00:22:52;21.20;88.30
25468;DHT22;13384;24.794;110.498;2022-10-16T00:25:23;21.10;88.20
25468;DHT22;13384;24.794;110.498;2022-10-16T00:28:14;21.20;88.20
25468;DHT22;13384;24.794;110.498;2022-10-16T00:31:26;21.20;88.30
25468;DHT22;13384;24.794;110.498;2022-10-16T00:33:58;21.20;88.20
25468;DHT22;13384;24.794;110.498;2022-10-16T00:36:32;21.20;88.10
25468;DHT22;13384;24.794;110.498;2022-10-16T00:39:24;21.30;88.10
25468;DHT22;13384;24.794;110.498;2022-10-16T00:42:17;21.30;88.10
25468;DHT22;13384;24.794;110.498;2022-10-16T00:44:59;21.30;88.10
25468;DHT22;13384;24.794;110.498;2022-10-16T00:47:40;21.30;88.00
25468;DHT22;13384;24.794;110.498;2022-10-16T00:50:44;21.30;88.00
25468;DHT22;13384;24.794;110.498;2022-10-16T00:53:17;21.30;87.70
25468;DHT22;13384;24.794;110.498;2022-10-16T00:56:08;21.30;87.90
25468;DHT22;13384;24.794;110.498;2022-10-16T00:59:44;21.30;87.60
25468;DHT22;13384;24.794;110.498;2022-10-16T01:02:30;21.30;87.80
25468;DHT22;13384;24.794;110.498;2022-10-16T01:05:22;21.40;87.60
25468;DHT22;13384;24.794;110.498;2022-10-16T01:08:12;21.40;87.60
25468;DHT22;13384;24.794;110.498;2022-10-16T01:11:30;21.40;87.60
25468;DHT22;13384;24.794;110.498;2022-10-16T01:17:34;21.40;88.30
25468;DHT22;13384;24.794;110.498;2022-10-16T01:20:54;21.40;87.50
25468;DHT22;13384;24.794;110.498;2022-10-16T01:27:26;21.50;87.60
25468;DHT22;13384;24.794;110.498;2022-10-16T01:30:12;21.50;87.40
25468;DHT22;13384;24.794;110.498;2022-10-16T01:33:23;21.50;86.60
25468;DHT22;13384;24.794;110.498;2022-10-16T01:36:21;21.50;87.40
25468;DHT22;13384;24.794;110.498;2022-10-16T01:39:13;21.50;86.60
25468;DHT22;13384;24.794;110.498;2022-10-16T01:41:57;21.50;86.80
25468;DHT22;13384;24.794;110.498;2022-10-16T01:44:51;21.50;85.60
25468;DHT22;13384;24.794;110.498;2022-10-16T01:47:49;21.50;87.30
25468;DHT22;13384;24.794;110.498;2022-10-16T01:50:42;21.60;87.30
25468;DHT22;13384;24.794;110.498;2022-10-16T01:53:15;21.60;87.30
25468;DHT22;13384;24.794;110.498;2022-10-16T01:56:12;21.60;87.20
25468;DHT22;13384;24.794;110.498;2022-10-16T01:59:22;21.60;87.00
25468;DHT22;13384;24.794;110.498;2022-10-16T02:02:31;21.60;87.10
25468;DHT22;13384;24.794;110.498;2022-10-16T02:05:14;21.60;86.90
25468;DHT22;13384;24.794;110.498;2022-10-16T02:07:44;21.60;86.70
25468;DHT22;13384;24.794;110.498;2022-10-16T02:10:34;21.60;85.30
25468;DHT22;13384;24.794;110.498;2022-10-16T02:13:36;21.60;86.00
25468;DHT22;13384;24.794;110.498;2022-10-16T02:16:10;21.60;86.30
25468;DHT22;13384;24.794;110.498;2022-10-16T02:19:06;21.60;86.50
25468;DHT22;13384;24.794;110.498;2022-10-16T02:22:00;21.60;86.40
25468;DHT22;13384;24.794;110.498;2022-10-16T02:24:50;21.60;86.60
25468;DHT22;13384;24.794;110.498;2022-10-16T02:27:54;21.60;86.50
25468;DHT22;13384;24.794;110.498;2022-10-16T02:31:09;21.60;86.10
25468;DHT22;13384;24.794;110.498;2022-10-16T02:33:41;21.70;86.40
25468;DHT22;13384;24.794;110.498;2022-10-16T02:36:12;21.60;86.50
25468;DHT22;13384;24.794;110.498;2022-10-16T02:38:44;21.70;86.70
25468;DHT22;13384;24.794;110.498;2022-10-16T02:41:16;21.60;86.30
25468;DHT22;13384;24.794;110.498;2022-10-16T02:44:25;21.70;86.60
25468;DHT22;13384;24.794;110.498;2022-10-16T02:47:09;21.70;86.50
25468;DHT22;13384;24.794;110.498;2022-10-16T02:49:53;21.70;86.60
25468;DHT22;13384;24.794;110.498;2022-10-16T02:52:36;21.70;86.60
25468;DHT22;13384;24.794;110.498;2022-10-16T02:55:43;21.70;86.70
25468;DHT22;13384;24.794;110.498;2022-10-16T02:58:54;21.70;86.60
25468;DHT22;13384;24.794;110.498;2022-10-16T03:01:57;21.70;86.50
25468;DHT22;13384;24.794;110.498;2022-10-16T03:05:05;21.70;86.60
25468;DHT22;13384;24.794;110.498;2022-10-16T03:07:54;21.70;86.60
25468;DHT22;13384;24.794;110.498;2022-10-16T03:10:43;21.70;86.60
25468;DHT22;13384;24.794;110.498;2022-10-16T03:13:32;21.80;86.60
25468;DHT22;13384;24.794;110.498;2022-10-16T03:16:01;21.80;86.60
25468;DHT22;13384;24.794;110.498;2022-10-16T03:18:30;21.80;86.50
25468;DHT22;13384;24.794;110.498;2022-10-16T03:20:58;21.80;86.40
25468;DHT22;13384;24.794;110.498;2022-10-16T03:23:47;21.80;86.40
25468;DHT22;13384;24.794;110.498;2022-10-16T03:26:56;21.80;86.40
25468;DHT22;13384;24.794;110.498;2022-10-16T03:29:25;21.80;86.30
25468;DHT22;13384;24.794;110.498;2022-10-16T03:31:56;21.80;86.30
25468;DHT22;13384;24.794;110.498;2022-10-16T03:34:25;21.80;86.30
25468;DHT22;13384;24.794;110.498;2022-10-16T03:36:53;21.80;86.20
25468;DHT22;13384;24.794;110.498;2022-10-16T03:39:22;21.80;86.20
25468;DHT22;13384;24.794;110.498;2022-10-16T03:42:11;21.90;86.00
25468;DHT22;13384;24.794;110.498;2022-10-16T03:45:04;21.80;86.00
25468;DHT22;13384;24.794;110.498;2022-10-16T03:47:33;21.90;86.00
25468;DHT22;13384;24.794;110.498;2022-10-16T03:50:18;21.80;86.00
25468;DHT22;13384;24.794;110.498;2022-10-16T03:53:02;21.80;85.90
25468;DHT22;13384;24.794;110.498;2022-10-16T03:55:31;21.90;85.90
25468;DHT22;13384;24.794;110.498;2022-10-16T03:58:00;21.90;85.80
25468;DHT22;13384;24.794;110.498;2022-10-16T04:00:29;21.90;85.80
25468;DHT22;13384;24.794;110.498;2022-10-16T04:02:58;21.90;85.80
25468;DHT22;13384;24.794;110.498;2022-10-16T04:05:29;21.90;85.70
25468;DHT22;13384;24.794;110.498;2022-10-16T04:08:21;21.90;85.60
25468;DHT22;13384;24.794;110.498;2022-10-16T04:10:53;21.90;85.60
25468;DHT22;13384;24.794;110.498;2022-10-16T04:14:00;21.90;85.60
25468;DHT22;13384;24.794;110.498;2022-10-16T04:17:10;21.90;85.50
25468;DHT22;13384;24.794;110.498;2022-10-16T04:19:54;21.90;85.50
25468;DHT22;13384;24.794;110.498;2022-10-16T04:22:23;21.90;85.50
25468;DHT22;13384;24.794;110.498;2022-10-16T04:25:30;21.90;85.50
25468;DHT22;13384;24.794;110.498;2022-10-16T04:28:22;21.90;85.40
25468;DHT22;13384;24.794;110.498;2022-10-16T04:31:24;21.90;85.40
25468;DHT22;13384;24.794;110.498;2022-10-16T04:34:19;21.90;85.50
25468;DHT22;13384;24.794;110.498;2022-10-16T04:37:05;21.90;85.30
25468;DHT22;13384;24.794;110.498;2022-10-16T04:39:37;21.90;85.40
25468;DHT22;13384;24.794;110.498;2022-10-16T04:42:31;22.00;85.40
25468;DHT22;13384;24.794;110.498;2022-10-16T04:45:02;21.90;85.30
25468;DHT22;13384;24.794;110.498;2022-10-16T04:48:00;22.00;85.30
25468;DHT22;13384;24.794;110.498;2022-10-16T04:51:00;22.00;85.30
25468;DHT22;13384;24.794;110.498;2022-10-16T04:53:31;22.00;85.40
25468;DHT22;13384;24.794;110.498;2022-10-16T04:56:04;22.00;85.30
25468;DHT22;13384;24.794;110.498;2022-10-16T04:59:15;22.00;85.20
25468;DHT22;13384;24.794;110.498;2022-10-16T05:02:13;22.00;85.20
25468;DHT22;13384;24.794;110.498;2022-10-16T05:05:03;22.00;85.20
25468;DHT22;13384;24.794;110.498;2022-10-16T05:07:52;22.00;85.90
25468;DHT22;13384;24.794;110.498;2022-10-16T05:10:44;22.00;85.20
25468;DHT22;13384;24.794;110.498;2022-10-16T05:13:33;22.00;85.10
25468;DHT22;13384;24.794;110.498;2022-10-16T05:16:13;22.00;85.00
25468;DHT22;13384;24.794;110.498;2022-10-16T05:19:08;22.00;85.00
25468;DHT22;13384;24.794;110.498;2022-10-16T05:22:16;22.00;85.00
25468;DHT22;13384;24.794;110.498;2022-10-16T05:25:16;22.00;84.90
25468;DHT22;13384;24.794;110.498;2022-10-16T05:27:49;22.10;85.00
25468;DHT22;13384;24.794;110.498;2022-10-16T05:30:44;22.10;84.90
25468;DHT22;13384;24.794;110.498;2022-10-16T05:33:39;22.10;84.90
25468;DHT22;13384;24.794;110.498;2022-10-16T05:36:30;22.00;84.90
25468;DHT22;13384;24.794;110.498;2022-10-16T05:38:59;22.10;84.90
25468;DHT22;13384;24.794;110.498;2022-10-16T05:42:04;22.10;84.90
25468;DHT22;13384;24.794;110.498;2022-10-16T05:44:33;22.10;84.90
25468;DHT22;13384;24.794;110.498;2022-10-16T05:47:02;22.10;84.80
25468;DHT22;13384;24.794;110.498;2022-10-16T05:49:31;22.10;84.80
25468;DHT22;13384;24.794;110.498;2022-10-16T05:52:20;22.10;84.90
25468;DHT22;13384;24.794;110.498;2022-10-16T05:55:01;22.10;84.80
25468;DHT22;13384;24.794;110.498;2022-10-16T05:57:32;22.10;84.90
25468;DHT22;13384;24.794;110.498;2022-10-16T06:00:22;22.10;84.90
25468;DHT22;13384;24.794;110.498;2022-10-16T06:03:15;22.10;84.80
25468;DHT22;13384;24.794;110.498;2022-10-16T06:05:47;22.10;84.80
25468;DHT22;13384;24.794;110.498;2022-10-16T06:08:40;22.10;84.80
25468;DHT22;13384;24.794;110.498;2022-10-16T06:11:14;22.10;84.70
25468;DHT22;13384;24.794;110.498;2022-10-16T06:14:13;22.10;84.80
25468;DHT22;13384;24.794;110.498;2022-10-16T06:16:44;22.10;84.80
25468;DHT22;13384;24.794;110.498;2022-10-16T06:19:38;22.10;84.70
25468;DHT22;13384;24.794;110.498;2022-10-16T06:22:09;22.10;84.70
25468;DHT22;13384;24.794;110.498;2022-10-16T06:25:06;22.10;84.70
25468;DHT22;13384;24.794;110.498;2022-10-16T06:27:41;22.10;84.70
25468;DHT22;13384;24.794;110.498;2022-10-16T06:30:34;22.20;84.70
25468;DHT22;13384;24.794;110.498;2022-10-16T06:33:39;22.20;84.70
25468;DHT22;13384;24.794;110.498;2022-10-16T06:36:15;22.20;84.70
25468;DHT22;13384;24.794;110.498;2022-10-16T06:38:45;22.10;84.60
25468;DHT22;13384;24.794;110.498;2022-10-16T06:41:16;22.20;84.60
25468;DHT22;13384;24.794;110.498;2022-10-16T06:43:46;22.20;84.60
25468;DHT22;13384;24.794;110.498;2022-10-16T06:46:38;22.20;84.60
25468;DHT22;13384;24.794;110.498;2022-10-16T06:49:30;22.20;84.60
25468;DHT22;13384;24.794;110.498;2022-10-16T06:52:18;22.20;84.60
25468;DHT22;13384;24.794;110.498;2022-10-16T06:55:00;22.20;84.60
25468;DHT22;13384;24.794;110.498;2022-10-16T06:57:52;22.20;84.60
25468;DHT22;13384;24.794;110.498;2022-10-16T07:00:45;22.20;84.50
25468;DHT22;13384;24.794;110.498;2022-10-16T07:03:41;22.20;84.50
25468;DHT22;13384;24.794;110.498;2022-10-16T07:06:16;22.20;84.40
25468;DHT22;13384;24.794;110.498;2022-10-16T07:09:14;22.20;84.50
25468;DHT22;13384;24.794;110.498;2022-10-16T07:11:46;22.20;84.50
25468;DHT22;13384;24.794;110.498;2022-10-16T07:14:20;22.20;84.50
25468;DHT22;13384;24.794;110.498;2022-10-16T07:16:53;22.20;84.50
25468;DHT22;13384;24.794;110.498;2022-10-16T07:19:37;22.20;84.50
25468;DHT22;13384;24.794;110.498;2022-10-16T07:22:09;22.20;84.40
25468;DHT22;13384;24.794;110.498;2022-10-16T07:24:41;22.20;84.50
25468;DHT22;13384;24.794;110.498;2022-10-16T07:27:20;22.20;84.40
25468;DHT22;13384;24.794;110.498;2022-10-16T07:30:15;22.30;84.50
25468;DHT22;13384;24.794;110.498;2022-10-16T07:32:45;22.20;84.40
25468;DHT22;13384;24.794;110.498;2022-10-16T07:36:03;22.30;84.40
25468;DHT22;13384;24.794;110.498;2022-10-16T07:38:37;22.30;84.50
25468;DHT22;13384;24.794;110.498;2022-10-16T07:41:31;22.30;84.50
25468;DHT22;13384;24.794;110.498;2022-10-16T07:44:35;22.30;84.40
25468;DHT22;13384;24.794;110.498;2022-10-16T07:47:20;22.30;84.40
25468;DHT22;13384;24.794;110.498;2022-10-16T07:50:32;22.30;84.40
25468;DHT22;13384;24.794;110.498;2022-10-16T07:53:24;22.30;84.40
25468;DHT22;13384;24.794;110.498;2022-10-16T07:56:01;22.30;84.40
25468;DHT22;13384;24.794;110.498;2022-10-16T07:58:30;22.30;84.40
25468;DHT22;13384;24.794;110.498;2022-10-16T08:01:04;22.30;84.50
25468;DHT22;13384;24.794;110.498;2022-10-16T08:03:53;22.30;84.40
25468;DHT22;13384;24.794;110.498;2022-10-16T08:06:45;22.30;84.40
25468;DHT22;13384;24.794;110.498;2022-10-16T08:09:36;22.40;84.50
25468;DHT22;13384;24.794;110.498;2022-10-16T08:12:26;22.40;84.50
25468;DHT22;13384;24.794;110.498;2022-10-16T08:15:21;22.40;84.40
25468;DHT22;13384;24.794;110.498;2022-10-16T08:18:11;22.40;84.50
25468;DHT22;13384;24.794;110.498;2022-10-16T08:20:59;22.40;84.40
25468;DHT22;13384;24.794;110.498;2022-10-16T08:23:32;22.40;84.50
25468;DHT22;13384;24.794;110.498;2022-10-16T08:26:26;22.40;84.40
25468;DHT22;13384;24.794;110.498;2022-10-16T08:29:23;22.40;84.40
25468;DHT22;13384;24.794;110.498;2022-10-16T08:31:55;22.40;84.50
25468;DHT22;13384;24.794;110.498;2022-10-16T08:34:52;22.40;84.50
25468;DHT22;13384;24.794;110.498;2022-10-16T08:37:55;22.40;84.50
25468;DHT22;13384;24.794;110.498;2022-10-16T08:40:46;22.40;84.50
25468;DHT22;13384;24.794;110.498;2022-10-16T08:48:57;22.40;84.50
25468;DHT22;13384;24.794;110.498;2022-10-16T08:51:51;22.40;84.50
25468;DHT22;13384;24.794;110.498;2022-10-16T08:57:13;22.40;84.60
25468;DHT22;13384;24.794;110.498;2022-10-16T09:00:27;22.40;84.60
25468;DHT22;13384;24.794;110.498;2022-10-16T09:18:11;22.50;84.60
25468;DHT22;13384;24.794;110.498;2022-10-16T09:24:21;22.60;84.40
25468;DHT22;13384;24.794;110.498;2022-10-16T09:27:16;22.60;84.30
25468;DHT22;13384;24.794;110.498;2022-10-16T09:30:15;22.60;84.30
25468;DHT22;13384;24.794;110.498;2022-10-16T09:33:13;22.60;84.30
25468;DHT22;13384;24.794;110.498;2022-10-16T09:35:58;22.60;84.30
25468;DHT22;13384;24.794;110.498;2022-10-16T09:38:32;22.60;84.40
25468;DHT22;13384;24.794;110.498;2022-10-16T09:41:22;22.60;84.60
25468;DHT22;13384;24.794;110.498;2022-10-16T09:44:21;22.50;84.70
25468;DHT22;13384;24.794;110.498;2022-10-16T09:47:17;22.50;84.80
25468;DHT22;13384;24.794;110.498;2022-10-16T09:50:29;22.50;84.90
25468;DHT22;13384;24.794;110.498;2022-10-16T09:53:19;22.50;85.10
25468;DHT22;13384;24.794;110.498;2022-10-16T09:55:52;22.40;85.10
25468;DHT22;13384;24.794;110.498;2022-10-16T09:58:49;22.40;85.20
25468;DHT22;13384;24.794;110.498;2022-10-16T10:01:19;22.40;85.30
25468;DHT22;13384;24.794;110.498;2022-10-16T10:03:50;22.40;85.50
25468;DHT22;13384;24.794;110.498;2022-10-16T10:06:52;22.40;85.40
25468;DHT22;13384;24.794;110.498;2022-10-16T10:09:26;22.40;85.60
25468;DHT22;13384;24.794;110.498;2022-10-16T10:12:25;22.40;85.60
25468;DHT22;13384;24.794;110.498;2022-10-16T10:15:15;22.40;85.60
25468;DHT22;13384;24.794;110.498;2022-10-16T10:18:22;22.40;85.70
25468;DHT22;13384;24.794;110.498;2022-10-16T10:20:59;22.40;85.80
25468;DHT22;13384;24.794;110.498;2022-10-16T10:23:57;22.40;85.80
25468;DHT22;13384;24.794;110.498;2022-10-16T10:26:34;22.40;85.80
25468;DHT22;13384;24.794;110.498;2022-10-16T10:36:37;22.40;86.00
25468;DHT22;13384;24.794;110.498;2022-10-16T10:39:39;22.40;86.00
25468;DHT22;13384;24.794;110.498;2022-10-16T10:42:30;22.40;86.00
25468;DHT22;13384;24.794;110.498;2022-10-16T10:57:30;22.40;85.80
25468;DHT22;13384;24.794;110.498;2022-10-16T11:09:56;22.40;85.90
25468;DHT22;13384;24.794;110.498;2022-10-16T11:12:44;22.40;85.80
25468;DHT22;13384;24.794;110.498;2022-10-16T11:15:36;22.40;85.90
25468;DHT22;13384;24.794;110.498;2022-10-16T11:28:36;22.40;86.00
25468;DHT22;13384;24.794;110.498;2022-10-16T11:31:22;22.40;86.10
25468;DHT22;13384;24.794;110.498;2022-10-16T11:37:36;22.40;86.10
25468;DHT22;13384;24.794;110.498;2022-10-16T11:39:46;22.40;86.20
25468;DHT22;13384;24.794;110.498;2022-10-16T11:42:43;22.40;86.30
25468;DHT22;13384;24.794;110.498;2022-10-16T11:48:02;22.40;86.40
25468;DHT22;13384;24.794;110.498;2022-10-16T11:54:28;22.40;86.40
25468;DHT22;13384;24.794;110.498;2022-10-16T11:57:54;22.40;86.50
25468;DHT22;13384;24.794;110.498;2022-10-16T12:00:47;22.40;86.50
25468;DHT22;13384;24.794;110.498;2022-10-16T12:09:26;22.50;86.60
25468;DHT22;13384;24.794;110.498;2022-10-16T12:12:57;22.40;86.60
25468;DHT22;13384;24.794;110.498;2022-10-16T12:15:41;22.40;86.60
25468;DHT22;13384;24.794;110.498;2022-10-16T12:18:25;22.40;86.70
25468;DHT22;13384;24.794;110.498;2022-10-16T12:21:30;22.40;86.60
25468;DHT22;13384;24.794;110.498;2022-10-16T12:24:42;22.40;86.60
25468;DHT22;13384;24.794;110.498;2022-10-16T12:27:32;22.40;86.70
25468;DHT22;13384;24.794;110.498;2022-10-16T12:30:23;22.40;86.70
25468;DHT22;13384;24.794;110.498;2022-10-16T12:33:30;22.40;86.70
25468;DHT22;13384;24.794;110.498;2022-10-16T12:36:26;22.40;86.80
25468;DHT22;13384;24.794;110.498;2022-10-16T12:39:23;22.40;86.80
25468;DHT22;13384;24.794;110.498;2022-10-16T12:42:32;22.40;86.80
25468;DHT22;13384;24.794;110.498;2022-10-16T12:45:26;22.40;86.80
25468;DHT22;13384;24.794;110.498;2022-10-16T12:47:56;22.40;86.80
25468;DHT22;13384;24.794;110.498;2022-10-16T12:50:38;22.40;86.90
25468;DHT22;13384;24.794;110.498;2022-10-16T12:53:37;22.40;86.90
25468;DHT22;13384;24.794;110.498;2022-10-16T12:57:01;22.40;86.90
25468;DHT22;13384;24.794;110.498;2022-10-16T13:16:00;22.40;86.70
25468;DHT22;13384;24.794;110.498;2022-10-16T13:25:34;22.40;87.00
25468;DHT22;13384;24.794;110.498;2022-10-16T13:28:32;22.40;86.90
25468;DHT22;13384;24.794;110.498;2022-10-16T13:31:05;22.40;87.10
25468;DHT22;13384;24.794;110.498;2022-10-16T13:33:58;22.40;87.20
25468;DHT22;13384;24.794;110.498;2022-10-16T13:36:44;22.40;87.20
25468;DHT22;13384;24.794;110.498;2022-10-16T13:39:39;22.40;87.40
25468;DHT22;13384;24.794;110.498;2022-10-16T13:43:04;22.40;87.30
25468;DHT22;13384;24.794;110.498;2022-10-16T13:45:36;22.40;87.40
25468;DHT22;13384;24.794;110.498;2022-10-16T13:48:10;22.40;87.50
25468;DHT22;13384;24.794;110.498;2022-10-16T13:50:45;22.40;87.30
25468;DHT22;13384;24.794;110.498;2022-10-16T13:53:37;22.40;87.40
25468;DHT22;13384;24.794;110.498;2022-10-16T13:56:09;22.40;87.30
25468;DHT22;13384;24.794;110.498;2022-10-16T13:58:39;22.40;87.50
25468;DHT22;13384;24.794;110.498;2022-10-16T14:01:42;22.30;87.60
25468;DHT22;13384;24.794;110.498;2022-10-16T14:04:13;22.40;87.30
25468;DHT22;13384;24.794;110.498;2022-10-16T14:07:18;22.30;87.50
25468;DHT22;13384;24.794;110.498;2022-10-16T14:09:50;22.30;87.60
25468;DHT22;13384;24.794;110.498;2022-10-16T14:12:20;22.30;87.60
25468;DHT22;13384;24.794;110.498;2022-10-16T14:14:52;22.30;87.60
25468;DHT22;13384;24.794;110.498;2022-10-16T14:17:29;22.30;87.70
25468;DHT22;13384;24.794;110.498;2022-10-16T14:20:15;22.30;88.00
25468;DHT22;13384;24.794;110.498;2022-10-16T14:22:47;22.30;88.00
25468;DHT22;13384;24.794;110.498;2022-10-16T14:25:51;22.30;88.00
25468;DHT22;13384;24.794;110.498;2022-10-16T14:28:22;22.30;88.10
25468;DHT22;13384;24.794;110.498;2022-10-16T14:30:56;22.20;88.00
25468;DHT22;13384;24.794;110.498;2022-10-16T14:34:04;22.20;88.00
25468;DHT22;13384;24.794;110.498;2022-10-16T14:37:34;22.20;88.00
25468;DHT22;13384;24.794;110.498;2022-10-16T14:40:47;22.20;88.00
25468;DHT22;13384;24.794;110.498;2022-10-16T14:43:22;22.20;88.20
25468;DHT22;13384;24.794;110.498;2022-10-16T14:46:33;22.20;88.10
25468;DHT22;13384;24.794;110.498;2022-10-16T14:49:24;22.20;88.30
25468;DHT22;13384;24.794;110.498;2022-10-16T14:52:12;22.20;88.30
25468;DHT22;13384;24.794;110.498;2022-10-16T14:54:42;22.20;88.50
25468;DHT22;13384;24.794;110.498;2022-10-16T14:57:34;22.20;88.30
25468;DHT22;13384;24.794;110.498;2022-10-16T15:00:25;22.20;88.40
25468;DHT22;13384;24.794;110.498;2022-10-16T15:03:05;22.20;88.40
25468;DHT22;13384;24.794;110.498;2022-10-16T15:05:57;22.20;88.40
25468;DHT22;13384;24.794;110.498;2022-10-16T15:08:49;22.20;88.50
25468;DHT22;13384;24.794;110.498;2022-10-16T15:11:41;22.30;88.50
25468;DHT22;13384;24.794;110.498;2022-10-16T15:14:35;22.20;88.60
25468;DHT22;13384;24.794;110.498;2022-10-16T15:17:32;22.20;88.60
25468;DHT22;13384;24.794;110.498;2022-10-16T15:20:29;22.20;88.70
25468;DHT22;13384;24.794;110.498;2022-10-16T15:23:43;22.20;88.60
25468;DHT22;13384;24.794;110.498;2022-10-16T15:26:29;22.20;88.60
25468;DHT22;13384;24.794;110.498;2022-10-16T15:28:58;22.20;88.60
25468;DHT22;13384;24.794;110.498;2022-10-16T15:31:27;22.20;88.60
25468;DHT22;13384;24.794;110.498;2022-10-16T15:33:56;22.20;89.00
25468;DHT22;13384;24.794;110.498;2022-10-16T15:36:52;22.20;88.90
25468;DHT22;13384;24.794;110.498;2022-10-16T15:39:43;22.20;89.60
25468;DHT22;13384;24.794;110.498;2022-10-16T15:42:12;22.20;88.80
25468;DHT22;13384;24.794;110.498;2022-10-16T15:45:01;22.10;88.90
25468;DHT22;13384;24.794;110.498;2022-10-16T15:47:32;22.20;89.00
25468;DHT22;13384;24.794;110.498;2022-10-16T15:50:01;22.10;88.80
25468;DHT22;13384;24.794;110.498;2022-10-16T15:53:05;22.20;88.90
25468;DHT22;13384;24.794;110.498;2022-10-16T15:55:34;22.10;88.90
25468;DHT22;13384;24.794;110.498;2022-10-16T15:58:07;22.10;89.00
25468;DHT22;13384;24.794;110.498;2022-10-16T16:00:57;22.10;88.90
25468;DHT22;13384;24.794;110.498;2022-10-16T16:03:31;22.10;89.00
25468;DHT22;13384;24.794;110.498;2022-10-16T16:06:15;22.10;89.20
25468;DHT22;13384;24.794;110.498;2022-10-16T16:09:19;22.10;89.40
25468;DHT22;13384;24.794;110.498;2022-10-16T16:11:49;22.10;89.10
25468;DHT22;13384;24.794;110.498;2022-10-16T16:14:46;22.10;89.20
25468;DHT22;13384;24.794;110.498;2022-10-16T16:17:33;22.10;89.30
25468;DHT22;13384;24.794;110.498;2022-10-16T16:20:02;22.10;89.30
25468;DHT22;13384;24.794;110.498;2022-10-16T16:22:32;22.10;89.40
25468;DHT22;13384;24.794;110.498;2022-10-16T16:25:36;22.10;89.40
25468;DHT22;13384;24.794;110.498;2022-10-16T16:28:07;22.10;89.40
25468;DHT22;13384;24.794;110.498;2022-10-16T16:30:59;22.10;89.30
25468;DHT22;13384;24.794;110.498;2022-10-16T16:33:44;22.10;89.40
25468;DHT22;13384;24.794;110.498;2022-10-16T16:36:29;22.10;89.50
25468;DHT22;13384;24.794;110.498;2022-10-16T16:39:36;22.10;89.50
25468;DHT22;13384;24.794;110.498;2022-10-16T16:42:28;22.10;89.60
25468;DHT22;13384;24.794;110.498;2022-10-16T16:45:23;22.10;89.60
25468;DHT22;13384;24.794;110.498;2022-10-16T16:48:13;22.10;89.50
25468;DHT22;13384;24.794;110.498;2022-10-16T16:50:42;22.00;89.50
25468;DHT22;13384;24.794;110.498;2022-10-16T16:53:11;22.10;90.10
25468;DHT22;13384;24.794;110.498;2022-10-16T16:56:06;22.00;89.60
25468;DHT22;13384;24.794;110.498;2022-10-16T16:59:10;22.00;89.60
25468;DHT22;13384;24.794;110.498;2022-10-16T17:01:55;22.10;89.60
25468;DHT22;13384;24.794;110.498;2022-10-16T17:04:24;22.10;89.60
25468;DHT22;13384;24.794;110.498;2022-10-16T17:07:13;22.00;89.60
25468;DHT22;13384;24.794;110.498;2022-10-16T17:10:03;22.00;89.70
25468;DHT22;13384;24.794;110.498;2022-10-16T17:12:40;22.00;89.70
25468;DHT22;13384;24.794;110.498;2022-10-16T17:15:30;22.00;89.60
25468;DHT22;13384;24.794;110.498;2022-10-16T17:18:01;22.00;89.80
25468;DHT22;13384;24.794;110.498;2022-10-16T17:20:59;22.00;89.70
25468;DHT22;13384;24.794;110.498;2022-10-16T17:23:54;22.00;89.80
25468;DHT22;13384;24.794;110.498;2022-10-16T17:26:48;22.00;89.90
25468;DHT22;13384;24.794;110.498;2022-10-16T17:29:41;22.00;89.80
25468;DHT22;13384;24.794;110.498;2022-10-16T17:32:16;22.00;89.80
25468;DHT22;13384;24.794;110.498;2022-10-16T17:35:08;22.00;89.70
25468;DHT22;13384;24.794;110.498;2022-10-16T17:37:52;22.00;89.90
25468;DHT22;13384;24.794;110.498;2022-10-16T17:41:20;22.00;89.90
25468;DHT22;13384;24.794;110.498;2022-10-16T17:44:29;22.00;89.90
25468;DHT22;13384;24.794;110.498;2022-10-16T17:46:58;22.00;90.00
25468;DHT22;13384;24.794;110.498;2022-10-16T17:49:26;22.00;90.00
25468;DHT22;13384;24.794;110.498;2022-10-16T17:52:21;22.00;89.90
25468;DHT22;13384;24.794;110.498;2022-10-16T17:55:11;22.00;90.00
25468;DHT22;13384;24.794;110.498;2022-10-16T17:57:52;22.00;90.00
25468;DHT22;13384;24.794;110.498;2022-10-16T18:01:10;22.00;90.00
25468;DHT22;13384;24.794;110.498;2022-10-16T18:04:09;22.00;90.00
25468;DHT22;13384;24.794;110.498;2022-10-16T18:07:21;22.00;90.00
25468;DHT22;13384;24.794;110.498;2022-10-16T18:10:15;22.00;90.00
25468;DHT22;13384;24.794;110.498;2022-10-16T18:12:48;22.00;90.00
25468;DHT22;13384;24.794;110.498;2022-10-16T18:15:40;22.00;90.00
25468;DHT22;13384;24.794;110.498;2022-10-16T18:18:12;22.00;90.00
25468;DHT22;13384;24.794;110.498;2022-10-16T18:20:44;22.00;90.00
25468;DHT22;13384;24.794;110.498;2022-10-16T18:23:26;21.90;90.00
25468;DHT22;13384;24.794;110.498;2022-10-16T18:25:58;21.90;90.00
25468;DHT22;13384;24.794;110.498;2022-10-16T18:28:35;21.90;90.10
25468;DHT22;13384;24.794;110.498;2022-10-16T18:31:15;21.90;90.00
25468;DHT22;13384;24.794;110.498;2022-10-16T18:34:07;21.90;90.10
25468;DHT22;13384;24.794;110.498;2022-10-16T18:37:10;21.90;90.00
25468;DHT22;13384;24.794;110.498;2022-10-16T18:39:59;21.90;90.00
25468;DHT22;13384;24.794;110.498;2022-10-16T18:43:03;21.90;90.00
25468;DHT22;13384;24.794;110.498;2022-10-16T18:46:00;21.90;90.00
25468;DHT22;13384;24.794;110.498;2022-10-16T18:48:30;21.90;90.00
25468;DHT22;13384;24.794;110.498;2022-10-16T18:51:16;21.90;90.10
25468;DHT22;13384;24.794;110.498;2022-10-16T18:54:10;21.90;90.10
25468;DHT22;13384;24.794;110.498;2022-10-16T18:57:02;21.90;90.10
25468;DHT22;13384;24.794;110.498;2022-10-16T18:59:31;21.90;90.10